Time;durP1;ratioP1;P1;durP2;ratioP2;P2;SDS_P1;SDS_P2;PMS_P1;PMS_P2;Temp;Humidity;BMP_temperature;BMP_pressure;BME280_temperature;BME280_humidity;BME280_pressure;Samples;Min_cycle;Max_cycle;Signal;HPM_P1;HPM_P2
2022/05/26 00:00:34;;;;;;;19.80;19.10;;;16.30;30.90;;;;;;5012083;28;20683;-85
2022/05/26 00:03:00;;;;;;;19.30;18.60;;;16.30;31.20;;;;;;5010298;28;20181;-85
2022/05/26 00:05:27;;;;;;;18.87;18.17;;;16.20;30.80;;;;;;5009476;28;20181;-85
2022/05/26 00:07:53;;;;;;;19.40;18.70;;;16.30;31.20;;;;;;5010921;28;20185;-85
2022/05/26 00:10:19;;;;;;;18.67;17.97;;;16.30;31.40;;;;;;5011935;28;20931;-85
2022/05/26 00:12:45;;;;;;;19.60;18.90;;;16.30;31.10;;;;;;5010092;28;20459;-85
2022/05/26 00:15:11;;;;;;;19.50;18.80;;;16.30;31.70;;;;;;5010504;28;20432;-85
2022/05/26 00:17:38;;;;;;;19.20;18.50;;;16.30;31.60;;;;;;5010638;28;20177;-85
2022/05/26 00:20:05;;;;;;;19.33;18.60;;;16.30;31.90;;;;;;5010394;28;20413;-85
2022/05/26 00:22:31;;;;;;;19.80;19.00;;;16.30;31.00;;;;;;5009419;28;20423;-85
2022/05/26 00:24:57;;;;;;;19.13;18.43;;;16.30;31.10;;;;;;5010297;28;20431;-84
2022/05/26 00:27:23;;;;;;;19.37;18.67;;;16.30;31.50;;;;;;5012628;28;20428;-84
2022/05/26 00:29:49;;;;;;;18.57;17.97;;;16.20;31.20;;;;;;5011454;28;20269;-85
2022/05/26 00:32:14;;;;;;;18.93;18.23;;;16.20;31.50;;;;;;5011964;28;20630;-85
2022/05/26 00:34:40;;;;;;;18.37;17.77;;;16.20;31.40;;;;;;5010677;28;20287;-84
2022/05/26 00:37:07;;;;;;;18.70;18.10;;;16.20;31.20;;;;;;5011856;28;20180;-85
2022/05/26 00:39:33;;;;;;;18.70;17.90;;;16.30;31.70;;;;;;5012135;28;20247;-82
2022/05/26 00:42:03;;;;;;;19.20;18.50;;;16.20;31.70;;;;;;5012226;28;20423;-82
2022/05/26 00:44:29;;;;;;;18.80;18.10;;;16.30;32.30;;;;;;5012232;28;20463;-82
2022/05/26 00:47:01;;;;;;;18.10;17.50;;;16.30;31.80;;;;;;5011158;28;20431;-82
2022/05/26 00:49:56;;;;;;;18.97;18.27;;;16.20;32.20;;;;;;5010873;28;20421;-82
2022/05/26 00:52:35;;;;;;;18.90;18.20;;;16.20;32.10;;;;;;5002438;28;20423;-82
2022/05/26 00:55:07;;;;;;;19.00;18.30;;;16.30;32.20;;;;;;5011935;28;20416;-82
2022/05/26 00:57:58;;;;;;;19.13;18.53;;;16.30;33.00;;;;;;5010547;28;20455;-82
2022/05/26 01:00:28;;;;;;;18.97;18.30;;;16.30;31.90;;;;;;5010445;28;20420;-82
2022/05/26 01:03:02;;;;;;;19.33;18.63;;;16.20;31.90;;;;;;5009356;28;20425;-83
2022/05/26 01:06:04;;;;;;;18.03;17.43;;;16.20;32.30;;;;;;5009281;28;20199;-82
2022/05/26 01:08:53;;;;;;;19.23;18.53;;;16.20;32.10;;;;;;5011537;28;20807;-82
2022/05/26 01:11:19;;;;;;;19.40;18.70;;;16.20;32.50;;;;;;5010571;28;20463;-82
2022/05/26 01:13:53;;;;;;;18.90;18.30;;;16.20;32.90;;;;;;5009090;28;20851;-84
2022/05/26 01:16:37;;;;;;;19.43;18.63;;;16.20;32.90;;;;;;5009538;28;20633;-85
2022/05/26 01:19:08;;;;;;;18.97;18.10;;;16.20;32.50;;;;;;5011932;28;20412;-85
2022/05/26 01:21:46;;;;;;;19.43;18.73;;;16.20;32.70;;;;;;5011661;28;20409;-85
2022/05/26 01:24:24;;;;;;;19.53;18.83;;;16.20;32.50;;;;;;5010985;28;20424;-85
2022/05/26 01:27:03;;;;;;;19.43;18.73;;;16.20;32.60;;;;;;5010386;28;20466;-84
2022/05/26 01:29:38;;;;;;;18.87;18.07;;;16.20;32.40;;;;;;5010998;28;20434;-85
2022/05/26 01:32:15;;;;;;;19.33;18.07;;;16.20;32.20;;;;;;5009495;28;20459;-85
2022/05/26 01:35:24;;;;;;;19.00;18.30;;;16.20;32.10;;;;;;5009063;28;20816;-85
2022/05/26 01:38:21;;;;;;;18.03;17.43;;;16.10;31.80;;;;;;4979431;28;20578;-85
2022/05/26 01:40:47;;;;;;;18.77;18.17;;;16.20;32.70;;;;;;5010464;28;20424;-85
2022/05/26 01:43:21;;;;;;;18.90;18.20;;;16.10;31.70;;;;;;5010030;28;20780;-84
2022/05/26 01:46:01;;;;;;;18.10;17.50;;;16.10;32.00;;;;;;5010456;28;20193;-85
2022/05/26 01:48:36;;;;;;;19.10;18.10;;;16.10;32.00;;;;;;5010702;28;20423;-84
2022/05/26 01:51:28;;;;;;;18.73;18.03;;;16.00;32.50;;;;;;5009949;28;20420;-85
2022/05/26 01:54:09;;;;;;;19.13;18.43;;;16.00;32.20;;;;;;5000942;28;20471;-84
2022/05/26 01:56:44;;;;;;;19.27;18.57;;;16.00;32.20;;;;;;5009546;28;20490;-85
2022/05/26 01:59:16;;;;;;;19.10;18.50;;;16.00;32.40;;;;;;5012017;28;20424;-82
2022/05/26 02:01:49;;;;;;;19.23;18.53;;;16.00;32.20;;;;;;5009923;28;20847;-82
2022/05/26 02:04:23;;;;;;;19.10;18.40;;;16.10;32.30;;;;;;5008514;28;20474;-82
2022/05/26 02:06:58;;;;;;;19.47;18.80;;;16.00;31.90;;;;;;5009402;28;20424;-82
2022/05/26 02:09:28;;;;;;;19.47;18.67;;;15.90;32.20;;;;;;5009463;28;20458;-82
2022/05/26 02:12:07;;;;;;;19.10;18.40;;;15.90;31.80;;;;;;5014649;28;20507;-82
2022/05/26 02:14:41;;;;;;;19.43;18.73;;;15.90;32.40;;;;;;5014117;28;20464;-82
2022/05/26 02:17:13;;;;;;;18.57;17.97;;;15.90;32.20;;;;;;5013070;28;20458;-83
2022/05/26 02:20:08;;;;;;;18.80;18.20;;;15.90;32.10;;;;;;5013558;28;20470;-82
2022/05/26 02:22:37;;;;;;;19.63;18.63;;;15.90;33.00;;;;;;5014445;28;20446;-82
2022/05/26 02:25:18;;;;;;;19.70;18.90;;;15.90;32.70;;;;;;5012643;28;20482;-82
2022/05/26 02:27:46;;;;;;;19.40;18.70;;;15.90;32.50;;;;;;5014741;28;20440;-82
2022/05/26 02:30:13;;;;;;;19.00;18.40;;;15.80;32.30;;;;;;5013021;28;20459;-83
2022/05/26 02:32:46;;;;;;;19.70;19.00;;;15.80;32.80;;;;;;5013103;28;20452;-83
2022/05/26 02:35:16;;;;;;;19.73;19.10;;;15.80;32.80;;;;;;5014343;28;20499;-83
2022/05/26 02:37:45;;;;;;;19.47;18.77;;;15.70;32.70;;;;;;5012090;28;20416;-83
2022/05/26 02:40:11;;;;;;;19.90;19.20;;;15.70;33.00;;;;;;5011655;28;20424;-83
2022/05/26 02:42:46;;;;;;;19.43;18.73;;;15.70;33.50;;;;;;5011522;28;20551;-83
2022/05/26 02:45:12;;;;;;;19.70;19.00;;;15.70;33.30;;;;;;5013019;28;20454;-83
2022/05/26 02:48:08;;;;;;;19.97;19.27;;;15.70;33.50;;;;;;5012518;28;20474;-83
2022/05/26 02:50:47;;;;;;;19.70;19.00;;;15.60;33.70;;;;;;5012585;28;20407;-83
2022/05/26 02:53:23;;;;;;;19.77;19.07;;;15.60;33.90;;;;;;5012608;28;20475;-83
2022/05/26 02:55:54;;;;;;;20.10;19.40;;;15.50;34.30;;;;;;5013197;28;20408;-82
2022/05/26 02:58:35;;;;;;;20.07;19.37;;;15.50;34.20;;;;;;5013092;28;20420;-83
2022/05/26 03:01:31;;;;;;;20.13;19.43;;;15.50;35.00;;;;;;5011523;28;20503;-82
2022/05/26 03:04:11;;;;;;;21.30;20.40;;;15.40;34.40;;;;;;5012952;28;20420;-82
2022/05/26 03:06:49;;;;;;;20.17;19.33;;;15.40;34.70;;;;;;5012749;28;20419;-83
2022/05/26 03:09:16;;;;;;;21.30;20.40;;;15.30;35.00;;;;;;5012882;28;20419;-82
2022/05/26 03:11:43;;;;;;;20.30;19.50;;;15.30;35.20;;;;;;5012624;28;20444;-83
2022/05/26 03:14:09;;;;;;;19.57;18.87;;;15.20;35.50;;;;;;5013113;28;20452;-83
2022/05/26 03:16:35;;;;;;;20.30;19.40;;;15.20;35.90;;;;;;5012115;28;20850;-82
2022/05/26 03:19:00;;;;;;;20.60;19.70;;;15.20;36.10;;;;;;5010822;28;20417;-82
2022/05/26 03:21:26;;;;;;;20.50;19.70;;;15.20;36.10;;;;;;5010635;28;20641;-83
2022/05/26 03:23:52;;;;;;;19.73;19.00;;;15.10;36.00;;;;;;5012566;28;20204;-82
2022/05/26 03:26:18;;;;;;;20.50;19.60;;;15.10;36.20;;;;;;5013072;28;20185;-82
2022/05/26 03:28:44;;;;;;;19.73;19.03;;;15.10;36.00;;;;;;5011083;28;20783;-83
2022/05/26 03:31:10;;;;;;;20.67;19.87;;;15.20;36.60;;;;;;5010220;28;20173;-83
2022/05/26 03:41:51;;;;;;;20.43;19.73;;;15.10;36.00;;;;;;5012727;28;20435;-83
2022/05/26 03:44:17;;;;;;;20.90;20.00;;;15.10;36.00;;;;;;5010425;28;20896;-83
2022/05/26 03:46:42;;;;;;;20.40;19.60;;;15.00;36.30;;;;;;5009639;28;20520;-83
2022/05/26 03:49:08;;;;;;;20.20;19.50;;;15.00;36.40;;;;;;5011701;28;20515;-83
2022/05/26 03:51:34;;;;;;;20.27;19.57;;;15.10;36.40;;;;;;5011377;28;20178;-83
2022/05/26 03:54:00;;;;;;;20.03;19.20;;;15.00;36.50;;;;;;5011306;28;20215;-83
2022/05/26 03:56:25;;;;;;;19.50;18.80;;;15.00;37.00;;;;;;5010117;28;20519;-83
2022/05/26 03:58:51;;;;;;;20.00;19.20;;;15.00;36.90;;;;;;5010500;28;20426;-83
2022/05/26 04:01:16;;;;;;;20.67;19.67;;;14.90;37.10;;;;;;5011311;28;20268;-82
2022/05/26 04:03:42;;;;;;;20.97;20.17;;;14.90;36.90;;;;;;5012836;28;20180;-83
2022/05/26 04:06:08;;;;;;;20.47;19.70;;;14.90;37.10;;;;;;5010357;28;20188;-83
2022/05/26 04:08:33;;;;;;;20.90;20.10;;;14.90;37.50;;;;;;5010905;28;20185;-81
2022/05/26 04:10:59;;;;;;;20.70;19.90;;;15.00;37.70;;;;;;5009352;28;20195;-83
2022/05/26 04:13:28;;;;;;;20.00;19.20;;;15.00;37.20;;;;;;5010666;28;20298;-83
2022/05/26 04:15:53;;;;;;;20.47;19.70;;;15.00;37.40;;;;;;5009816;28;20174;-83
2022/05/26 04:18:19;;;;;;;20.53;19.53;;;14.90;37.20;;;;;;5011407;28;20932;-83
2022/05/26 04:20:45;;;;;;;20.67;19.87;;;15.00;37.30;;;;;;5011470;28;20209;-83
2022/05/26 04:23:10;;;;;;;20.50;19.80;;;14.90;37.50;;;;;;5011208;28;20177;-83
2022/05/26 04:25:36;;;;;;;20.87;20.07;;;14.90;37.60;;;;;;5009141;28;20173;-83
2022/05/26 04:28:02;;;;;;;21.20;20.40;;;14.90;37.50;;;;;;5011918;28;20565;-83
2022/05/26 04:30:27;;;;;;;21.00;20.20;;;14.90;38.20;;;;;;5010519;28;20662;-83
2022/05/26 04:32:53;;;;;;;21.13;20.23;;;14.90;38.00;;;;;;5010777;28;20246;-83
2022/05/26 04:35:19;;;;;;;21.90;21.00;;;15.00;37.80;;;;;;5009922;28;20169;-83
2022/05/26 04:37:45;;;;;;;21.83;21.03;;;15.00;38.20;;;;;;5009672;28;20416;-82
2022/05/26 04:40:12;;;;;;;21.80;21.00;;;15.00;37.80;;;;;;5010367;28;20531;-82
2022/05/26 04:42:39;;;;;;;21.20;20.40;;;15.10;38.30;;;;;;5009753;28;20827;-82
2022/05/26 04:45:06;;;;;;;20.50;19.53;;;15.10;38.10;;;;;;5011225;28;20408;-82
2022/05/26 04:47:32;;;;;;;19.80;19.00;;;15.10;38.30;;;;;;5009500;28;20409;-82
2022/05/26 04:49:58;;;;;;;20.23;19.53;;;15.20;38.20;;;;;;5012156;28;20950;-82
2022/05/26 04:52:24;;;;;;;20.60;19.80;;;15.10;38.00;;;;;;5009969;28;20177;-83
2022/05/26 04:54:52;;;;;;;20.87;20.07;;;15.20;38.20;;;;;;5009504;28;20694;-83
2022/05/26 04:57:21;;;;;;;21.77;20.87;;;15.20;38.30;;;;;;5009092;28;20424;-83
2022/05/26 04:59:47;;;;;;;21.50;20.70;;;15.30;38.00;;;;;;5010150;28;20495;-81
2022/05/26 05:02:14;;;;;;;21.30;20.50;;;15.40;37.50;;;;;;5009204;28;21052;-82
2022/05/26 05:04:42;;;;;;;21.03;19.90;;;15.40;37.00;;;;;;5009212;28;20518;-82
2022/05/26 05:07:09;;;;;;;21.43;20.53;;;15.40;36.30;;;;;;5008627;28;20448;-82
2022/05/26 05:09:36;;;;;;;20.03;19.33;;;15.50;37.00;;;;;;5007898;28;20424;-82
2022/05/26 05:12:03;;;;;;;21.10;20.30;;;15.40;37.00;;;;;;5008269;28;20428;-82
2022/05/26 05:14:34;;;;;;;21.03;20.23;;;15.40;37.90;;;;;;5010103;28;21009;-82
2022/05/26 05:17:00;;;;;;;22.17;21.30;;;15.40;37.50;;;;;;5011750;28;20417;-82
2022/05/26 05:19:25;;;;;;;21.90;21.10;;;15.40;37.90;;;;;;5010675;28;20765;-82
2022/05/26 05:22:05;;;;;;;21.53;20.43;;;15.30;38.20;;;;;;5009065;28;20173;-82
2022/05/26 05:24:37;;;;;;;21.00;20.20;;;15.30;38.30;;;;;;5008631;28;20177;-82
2022/05/26 05:27:13;;;;;;;21.23;20.43;;;15.30;38.00;;;;;;5009476;28;20458;-82
2022/05/26 05:29:43;;;;;;;20.53;19.73;;;15.40;37.90;;;;;;5010818;28;20416;-82
2022/05/26 05:32:19;;;;;;;20.60;19.80;;;15.50;37.50;;;;;;5009234;28;20427;-82
2022/05/26 05:34:54;;;;;;;20.17;19.47;;;15.50;36.80;;;;;;5007356;28;20598;-82
2022/05/26 05:37:20;;;;;;;21.30;20.50;;;15.70;36.50;;;;;;5009035;28;20736;-82
2022/05/26 05:39:46;;;;;;;20.20;19.50;;;15.80;36.60;;;;;;5010052;28;20454;-82
2022/05/26 05:42:12;;;;;;;20.90;20.10;;;15.90;35.80;;;;;;5009555;28;20177;-82
2022/05/26 05:44:38;;;;;;;20.57;19.87;;;15.90;35.50;;;;;;5008234;28;20422;-82
2022/05/26 05:47:05;;;;;;;20.00;19.30;;;16.00;35.70;;;;;;5010084;28;20185;-82
2022/05/26 05:49:32;;;;;;;20.30;19.50;;;16.00;35.40;;;;;;5009495;28;20411;-83
2022/05/26 05:52:22;;;;;;;20.80;20.00;;;16.10;35.20;;;;;;5007344;28;20177;-83
2022/05/26 05:54:48;;;;;;;20.30;19.60;;;16.20;34.30;;;;;;5007798;28;20509;-83
2022/05/26 05:57:14;;;;;;;20.03;19.27;;;16.20;35.40;;;;;;5007377;28;20503;-82
2022/05/26 05:59:39;;;;;;;20.00;19.30;;;16.30;34.80;;;;;;5009127;28;20511;-82
2022/05/26 06:02:06;;;;;;;20.20;19.40;;;16.40;34.90;;;;;;5008914;28;20411;-83
2022/05/26 06:04:41;;;;;;;20.60;19.80;;;16.50;34.80;;;;;;5009490;28;20181;-83
2022/05/26 06:07:17;;;;;;;20.00;19.20;;;16.50;34.60;;;;;;5007099;28;20426;-83
2022/05/26 06:09:44;;;;;;;20.17;19.37;;;16.50;34.90;;;;;;5010552;28;20889;-83
2022/05/26 06:12:10;;;;;;;20.20;19.50;;;16.50;35.30;;;;;;5008819;28;20796;-83
2022/05/26 06:14:37;;;;;;;19.93;19.13;;;16.60;34.90;;;;;;5008704;28;20598;-83
2022/05/26 06:17:05;;;;;;;21.20;19.77;;;16.60;33.70;;;;;;5009234;28;20816;-83
2022/05/26 06:19:31;;;;;;;20.47;19.70;;;16.50;34.00;;;;;;5007631;28;20432;-83
2022/05/26 06:21:56;;;;;;;19.37;18.63;;;16.60;33.90;;;;;;5008366;28;20413;-83
2022/05/26 06:24:28;;;;;;;20.03;19.27;;;16.60;34.20;;;;;;5009027;28;20564;-82
2022/05/26 06:26:53;;;;;;;19.13;18.43;;;16.60;34.50;;;;;;5009969;28;20661;-82
2022/05/26 06:37:34;;;;;;;19.43;18.73;;;16.60;34.60;;;;;;5011418;28;20919;-85
2022/05/26 06:40:00;;;;;;;20.33;19.37;;;16.70;35.20;;;;;;5008877;28;20431;-85
2022/05/26 06:42:26;;;;;;;21.10;20.30;;;16.60;34.80;;;;;;5009069;28;20412;-85
2022/05/26 06:44:55;;;;;;;19.17;18.47;;;16.70;34.80;;;;;;5008000;28;20180;-85
2022/05/26 06:47:22;;;;;;;20.20;19.50;;;16.70;34.90;;;;;;5008684;28;20788;-83
2022/05/26 06:49:49;;;;;;;18.87;18.27;;;16.70;35.10;;;;;;5010197;28;20792;-83
2022/05/26 06:52:16;;;;;;;20.20;19.30;;;16.70;35.40;;;;;;5009103;28;20484;-83
2022/05/26 06:54:46;;;;;;;19.63;18.07;;;16.80;35.80;;;;;;5008907;28;20455;-85
2022/05/26 06:57:13;;;;;;;20.33;19.43;;;16.80;34.90;;;;;;5013165;28;20425;-85
2022/05/26 06:59:39;;;;;;;19.50;18.80;;;16.90;35.10;;;;;;5014393;28;20935;-83
2022/05/26 07:02:07;;;;;;;20.67;19.87;;;16.90;34.50;;;;;;5013091;28;20412;-83
2022/05/26 07:04:33;;;;;;;20.70;19.80;;;16.90;35.20;;;;;;5011529;28;20332;-82
2022/05/26 07:06:59;;;;;;;21.47;20.63;;;17.10;34.80;;;;;;5013165;28;20522;-82
2022/05/26 07:09:25;;;;;;;20.80;20.10;;;17.10;34.20;;;;;;5012620;28;20844;-82
2022/05/26 07:11:52;;;;;;;19.37;18.67;;;17.00;34.30;;;;;;5012856;28;20446;-82
2022/05/26 07:14:19;;;;;;;20.00;19.20;;;17.00;34.70;;;;;;5012001;28;20486;-82
2022/05/26 07:16:46;;;;;;;19.70;19.00;;;17.10;35.60;;;;;;5013073;28;20416;-83
2022/05/26 07:19:16;;;;;;;19.50;18.80;;;17.10;34.20;;;;;;5013320;28;20431;-83
2022/05/26 07:21:46;;;;;;;19.57;18.87;;;17.20;33.10;;;;;;5012847;28;20424;-82
2022/05/26 07:24:13;;;;;;;19.80;19.00;;;17.30;33.30;;;;;;5013673;28;20428;-83
2022/05/26 07:26:40;;;;;;;18.83;18.20;;;17.40;32.10;;;;;;5012584;28;20424;-83
2022/05/26 07:29:06;;;;;;;19.73;19.03;;;17.50;32.20;;;;;;5013315;28;20420;-83
2022/05/26 07:31:35;;;;;;;20.57;19.67;;;17.50;32.00;;;;;;5012909;28;20994;-82
2022/05/26 07:34:02;;;;;;;20.13;19.43;;;17.60;31.50;;;;;;5012850;28;20464;-83
2022/05/26 07:42:02;;;;;;;19.30;18.60;;;17.70;31.70;;;;;;5014407;28;20915;-82
2022/05/26 07:44:29;;;;;;;18.80;18.17;;;17.80;30.80;;;;;;5012901;28;20416;-82
2022/05/26 07:46:55;;;;;;;19.67;18.67;;;17.80;31.30;;;;;;5012470;28;20455;-82
2022/05/26 07:49:21;;;;;;;19.07;18.37;;;17.90;30.90;;;;;;5012587;28;20467;-82
2022/05/26 07:51:47;;;;;;;18.80;18.20;;;18.00;29.50;;;;;;5012468;28;20916;-82
2022/05/26 07:54:12;;;;;;;18.70;18.10;;;18.00;30.00;;;;;;5012653;28;20600;-81
2022/05/26 07:56:38;;;;;;;19.20;18.50;;;18.00;29.60;;;;;;5011948;28;20239;-85
2022/05/26 07:59:05;;;;;;;19.00;18.00;;;18.00;29.80;;;;;;5012198;28;20178;-84
2022/05/26 08:01:32;;;;;;;18.27;17.67;;;18.00;29.90;;;;;;5012154;28;20412;-85
2022/05/26 08:03:58;;;;;;;17.93;17.33;;;18.00;29.80;;;;;;5012872;28;20507;-84
2022/05/26 08:06:24;;;;;;;19.40;18.70;;;18.00;30.40;;;;;;5011587;28;20512;-84
2022/05/26 08:08:50;;;;;;;18.90;18.10;;;18.10;30.20;;;;;;5013884;28;20201;-85
2022/05/26 08:11:15;;;;;;;18.53;17.83;;;18.10;29.60;;;;;;5012943;28;20192;-84
2022/05/26 08:13:41;;;;;;;18.03;17.43;;;18.10;29.50;;;;;;5012702;28;20517;-85
2022/05/26 08:16:07;;;;;;;18.77;18.10;;;18.10;29.50;;;;;;5011685;28;20185;-85
2022/05/26 08:18:33;;;;;;;18.77;18.17;;;18.10;29.30;;;;;;5012057;28;20485;-85
2022/05/26 08:21:11;;;;;;;18.83;18.00;;;18.10;29.20;;;;;;5012684;28;20323;-85
2022/05/26 08:23:38;;;;;;;18.90;18.20;;;17.90;29.80;;;;;;5012166;28;20435;-84
2022/05/26 08:26:04;;;;;;;19.70;18.90;;;17.90;29.90;;;;;;5014099;28;20892;-86
2022/05/26 08:28:33;;;;;;;19.60;18.70;;;17.90;30.70;;;;;;5012793;28;20759;-85
2022/05/26 08:31:00;;;;;;;19.33;18.33;;;17.90;30.20;;;;;;5012022;28;20420;-84
2022/05/26 08:33:26;;;;;;;18.90;18.20;;;17.90;30.50;;;;;;5012177;28;20784;-85
2022/05/26 08:36:02;;;;;;;19.60;18.57;;;17.90;30.20;;;;;;5012413;28;20424;-85
2022/05/26 08:38:28;;;;;;;19.00;18.30;;;18.00;30.70;;;;;;5012344;28;20482;-85
2022/05/26 08:40:54;;;;;;;19.03;18.30;;;18.00;30.40;;;;;;5012260;28;20822;-83
2022/05/26 08:43:24;;;;;;;19.40;18.70;;;18.00;30.80;;;;;;5011386;28;20272;-83
2022/05/26 08:45:53;;;;;;;19.03;18.33;;;18.00;30.60;;;;;;5011751;28;20182;-83
2022/05/26 08:48:41;;;;;;;18.80;18.20;;;18.00;30.40;;;;;;5011584;28;20451;-83
2022/05/26 08:51:11;;;;;;;20.10;19.33;;;18.10;30.20;;;;;;5011135;28;20413;-83
2022/05/26 08:53:39;;;;;;;19.70;18.80;;;18.00;30.90;;;;;;5011693;28;20972;-83
2022/05/26 08:56:08;;;;;;;19.73;18.83;;;18.10;30.20;;;;;;5010767;28;20511;-84
2022/05/26 08:58:41;;;;;;;19.70;19.00;;;18.20;31.70;;;;;;5011156;28;20424;-86
2022/05/26 09:01:11;;;;;;;19.37;18.60;;;18.20;31.00;;;;;;5012057;28;20466;-85
2022/05/26 09:03:37;;;;;;;18.93;18.33;;;18.30;30.80;;;;;;5011662;28;20495;-86
2022/05/26 09:06:14;;;;;;;19.00;18.40;;;18.50;30.30;;;;;;5011619;28;20428;-86
2022/05/26 09:14:34;;;;;;;20.50;19.67;;;18.60;29.70;;;;;;5012883;28;20435;-86
2022/05/26 09:17:04;;;;;;;19.97;19.27;;;18.60;29.10;;;;;;5011543;28;20764;-86
2022/05/26 09:19:53;;;;;;;19.60;18.90;;;18.70;29.70;;;;;;5010022;28;20412;-86
2022/05/26 09:22:31;;;;;;;19.93;19.13;;;18.60;29.00;;;;;;5011502;28;20496;-86
2022/05/26 09:24:58;;;;;;;20.50;19.70;;;18.50;29.00;;;;;;5010992;28;20939;-86
2022/05/26 09:27:34;;;;;;;19.43;18.63;;;18.60;29.50;;;;;;5013430;28;20420;-86
2022/05/26 09:30:28;;;;;;;19.63;18.73;;;18.70;29.80;;;;;;5013367;28;20424;-86
2022/05/26 09:32:54;;;;;;;19.80;18.83;;;18.60;29.00;;;;;;5010108;28;20769;-86
2022/05/26 09:35:20;;;;;;;19.87;19.07;;;18.50;29.00;;;;;;5011906;28;20427;-86
2022/05/26 09:37:49;;;;;;;19.33;18.43;;;18.50;29.30;;;;;;5011145;28;20424;-86
2022/05/26 09:40:27;;;;;;;19.90;18.90;;;18.50;29.80;;;;;;5010936;28;20511;-85
2022/05/26 09:43:02;;;;;;;19.20;18.50;;;18.40;29.90;;;;;;5011484;28;20459;-85
2022/05/26 09:45:40;;;;;;;19.10;18.40;;;18.20;30.10;;;;;;5011130;28;20444;-86
2022/05/26 09:48:17;;;;;;;19.07;18.37;;;18.20;30.60;;;;;;5011544;28;20447;-86
2022/05/26 09:50:49;;;;;;;19.53;18.83;;;18.20;30.30;;;;;;5011389;28;20415;-86
2022/05/26 09:53:32;;;;;;;19.90;19.17;;;18.20;30.80;;;;;;5011870;28;20820;-86
2022/05/26 09:55:58;;;;;;;19.00;18.20;;;18.30;30.20;;;;;;5011391;28;20412;-86
2022/05/26 09:58:34;;;;;;;18.47;17.87;;;18.30;30.50;;;;;;5011554;28;20421;-84
2022/05/26 10:01:03;;;;;;;18.73;18.13;;;18.40;30.80;;;;;;5011662;28;20173;-85
2022/05/26 10:03:45;;;;;;;19.47;18.67;;;18.40;30.20;;;;;;5010668;28;20431;-85
2022/05/26 10:06:35;;;;;;;19.10;18.40;;;18.50;29.80;;;;;;5009688;28;20443;-85
2022/05/26 10:09:25;;;;;;;19.20;18.40;;;18.50;31.10;;;;;;5011502;28;20515;-85
2022/05/26 10:12:13;;;;;;;19.00;18.30;;;18.50;31.60;;;;;;5011698;28;20418;-85
2022/05/26 10:14:54;;;;;;;20.37;19.30;;;18.50;30.80;;;;;;5011191;28;20463;-85
2022/05/26 10:17:34;;;;;;;17.97;17.37;;;18.40;29.70;;;;;;5010035;28;20425;-85
2022/05/26 10:20:12;;;;;;;19.63;18.60;;;18.30;30.10;;;;;;5011189;28;20970;-85
2022/05/26 10:23:00;;;;;;;18.40;17.70;;;18.40;30.50;;;;;;5010166;28;20467;-85
2022/05/26 10:25:26;;;;;;;17.90;17.30;;;18.40;30.50;;;;;;5011136;28;20912;-85
2022/05/26 10:28:25;;;;;;;19.27;18.50;;;18.50;31.00;;;;;;5010942;28;20420;-86
2022/05/26 10:31:06;;;;;;;19.90;18.83;;;18.50;30.40;;;;;;5011908;28;20230;-85
2022/05/26 10:33:37;;;;;;;19.77;19.07;;;18.60;30.00;;;;;;5016309;28;20492;-85
2022/05/26 10:36:12;;;;;;;19.27;18.57;;;18.60;30.30;;;;;;5014485;28;20416;-85
2022/05/26 10:39:05;;;;;;;19.27;18.67;;;18.70;29.90;;;;;;5014538;28;20533;-86
2022/05/26 10:41:33;;;;;;;19.00;18.30;;;18.60;30.30;;;;;;5014658;28;20416;-86
2022/05/26 10:44:26;;;;;;;20.40;19.60;;;18.70;30.20;;;;;;5014734;28;20424;-86
2022/05/26 10:47:16;;;;;;;19.50;18.80;;;18.60;30.30;;;;;;5014081;28;20449;-85
2022/05/26 10:49:53;;;;;;;18.40;17.80;;;18.60;30.60;;;;;;5003013;28;20550;-85
2022/05/26 10:52:21;;;;;;;18.70;18.00;;;18.50;29.50;;;;;;5014647;28;20424;-85
2022/05/26 10:55:02;;;;;;;18.70;18.10;;;18.50;29.40;;;;;;5013699;28;20456;-85
2022/05/26 10:58:01;;;;;;;18.90;18.20;;;18.30;30.50;;;;;;4998949;28;20472;-85
2022/05/26 11:00:30;;;;;;;18.77;18.10;;;18.30;30.10;;;;;;5015746;28;20411;-85
2022/05/26 11:03:22;;;;;;;19.10;18.30;;;18.30;30.30;;;;;;5014295;28;20506;-85
2022/05/26 11:05:52;;;;;;;19.17;18.47;;;18.40;30.70;;;;;;5014021;28;20428;-85
2022/05/26 11:08:24;;;;;;;18.57;17.87;;;18.30;29.70;;;;;;5014593;28;20412;-84
2022/05/26 11:11:13;;;;;;;18.70;18.00;;;18.30;30.80;;;;;;5014251;28;20947;-85
2022/05/26 11:13:50;;;;;;;19.90;19.10;;;18.30;30.60;;;;;;5013566;28;20470;-85
2022/05/26 11:19:50;;;;;;;18.93;18.27;;;18.50;30.70;;;;;;5014636;28;20427;-85
2022/05/26 11:22:16;;;;;;;19.73;18.93;;;18.70;30.50;;;;;;5012628;28;20811;-85
2022/05/26 11:24:47;;;;;;;19.43;18.73;;;18.70;30.30;;;;;;5011910;28;20416;-85
2022/05/26 11:27:34;;;;;;;19.83;19.03;;;18.70;30.50;;;;;;5013540;28;20964;-84
2022/05/26 11:36:13;;;;;;;20.07;19.20;;;18.60;30.80;;;;;;5014977;28;20462;-85
2022/05/26 11:38:49;;;;;;;19.27;18.53;;;18.50;30.30;;;;;;5013417;28;20440;-85
2022/05/26 11:41:47;;;;;;;19.50;18.73;;;18.60;30.60;;;;;;5012869;28;20423;-85
2022/05/26 11:44:51;;;;;;;19.40;18.70;;;18.60;31.60;;;;;;4995403;28;20432;-85
2022/05/26 11:47:26;;;;;;;19.10;18.47;;;18.60;30.40;;;;;;4976066;28;20456;-86
2022/05/26 11:49:52;;;;;;;20.10;19.20;;;18.80;30.90;;;;;;5011753;28;20435;-85
2022/05/26 11:52:45;;;;;;;19.80;18.90;;;18.80;30.10;;;;;;5013734;28;20429;-85
2022/05/26 11:55:46;;;;;;;20.20;19.50;;;18.90;30.00;;;;;;5013181;28;20205;-85
2022/05/26 11:58:25;;;;;;;19.50;18.80;;;19.00;30.00;;;;;;5012360;28;20520;-86
2022/05/26 12:01:16;;;;;;;20.47;19.37;;;18.90;29.80;;;;;;5013010;28;20427;-86
2022/05/26 12:04:01;;;;;;;19.63;18.93;;;18.80;29.40;;;;;;5011257;28;20416;-86
2022/05/26 12:06:37;;;;;;;19.47;18.67;;;18.80;30.30;;;;;;5012621;28;20443;-85
2022/05/26 12:09:28;;;;;;;18.80;18.00;;;18.70;30.90;;;;;;5012909;28;20419;-86
2022/05/26 12:11:56;;;;;;;18.77;17.97;;;18.80;30.60;;;;;;5011034;28;20836;-86
2022/05/26 12:14:43;;;;;;;19.70;19.00;;;18.60;30.00;;;;;;5012834;28;20474;-86
2022/05/26 12:17:33;;;;;;;19.37;18.33;;;18.50;30.20;;;;;;5013576;28;20420;-86
2022/05/26 12:20:11;;;;;;;19.53;18.73;;;18.50;31.00;;;;;;5011301;28;20420;-85
2022/05/26 12:22:40;;;;;;;19.10;18.40;;;18.60;32.10;;;;;;5011927;28;20423;-85
2022/05/26 12:25:27;;;;;;;19.20;18.50;;;18.50;31.80;;;;;;5011362;28;20424;-85
2022/05/26 12:27:59;;;;;;;19.20;18.50;;;18.50;32.40;;;;;;5011623;28;20424;-84
2022/05/26 12:30:36;;;;;;;19.63;18.80;;;18.50;33.20;;;;;;5011786;28;20420;-85
2022/05/26 12:33:19;;;;;;;19.47;18.77;;;18.60;33.10;;;;;;5011245;28;20420;-86
2022/05/26 12:36:00;;;;;;;20.63;19.83;;;18.50;33.40;;;;;;5010405;28;20508;-83
2022/05/26 12:38:44;;;;;;;20.83;19.83;;;18.50;33.70;;;;;;5012235;28;20778;-83
2022/05/26 12:41:48;;;;;;;19.53;18.73;;;18.50;33.60;;;;;;5012533;28;20405;-83
2022/05/26 12:44:35;;;;;;;19.50;18.80;;;18.50;33.80;;;;;;5012001;28;20416;-83
2022/05/26 12:47:28;;;;;;;19.80;19.00;;;18.60;33.20;;;;;;5012281;28;20418;-83
2022/05/26 12:50:06;;;;;;;20.43;19.63;;;18.70;33.20;;;;;;5012404;28;20790;-83
2022/05/26 12:52:37;;;;;;;21.77;20.60;;;18.80;32.30;;;;;;5012127;28;20479;-83
2022/05/26 12:55:06;;;;;;;21.00;20.20;;;18.80;33.30;;;;;;5011326;28;20980;-83
2022/05/26 12:57:34;;;;;;;22.37;21.07;;;18.90;33.20;;;;;;5012234;28;20754;-83
2022/05/26 13:00:21;;;;;;;20.87;20.07;;;19.00;32.10;;;;;;5011974;28;20412;-83
2022/05/26 13:02:50;;;;;;;19.97;19.27;;;19.10;32.60;;;;;;5011776;28;20415;-82
2022/05/26 13:05:17;;;;;;;20.23;19.53;;;19.10;33.70;;;;;;5011473;28;20416;-82
2022/05/26 13:07:53;;;;;;;19.90;19.20;;;19.10;32.70;;;;;;5011997;28;20916;-83
2022/05/26 13:10:27;;;;;;;19.83;19.13;;;19.10;31.80;;;;;;5012000;28;20416;-82
2022/05/26 13:12:53;;;;;;;21.27;20.37;;;19.00;31.20;;;;;;5011721;28;20416;-82
2022/05/26 13:15:27;;;;;;;19.90;19.10;;;18.80;32.50;;;;;;5011296;28;20825;-82
2022/05/26 13:17:54;;;;;;;19.87;19.07;;;18.80;32.50;;;;;;5011619;28;20412;-83
2022/05/26 13:20:22;;;;;;;19.40;18.60;;;18.80;33.00;;;;;;5011833;28;20768;-82
2022/05/26 13:22:48;;;;;;;20.00;19.30;;;18.80;33.30;;;;;;5011598;28;20423;-82
2022/05/26 13:25:21;;;;;;;21.07;19.97;;;18.80;33.70;;;;;;5011380;28;20421;-82
2022/05/26 13:27:54;;;;;;;20.63;19.83;;;18.70;34.30;;;;;;5011928;28;20182;-82
2022/05/26 13:33:21;;;;;;;21.00;20.30;;;18.60;35.00;;;;;;5013232;28;20848;-82
2022/05/26 13:35:59;;;;;;;20.73;19.90;;;18.50;35.50;;;;;;5009714;28;20432;-82